Latest Coastal Weather Observations for Mandurah

IDW60701

Issued at 4:35 pm WST Monday 21 April 2014 (issued every 10 minutes, with the page automatically refreshed every 10 minutes)

About coastal observations | Map of coastal stations | Coastal observations for WA | Marine services | Other Formats
Station Details ID: 009977 Name: MANDURAH Lat: -32.52 Lon: 115.71 Height: 3.0 m
Data from the previous 72 hours. | See also: Recent months at Mandurah
Date/Time
WST
Temp

°C
Wind Pressure Rain
since 9am
mm
Weather Cloud Vis
km
Sea
Height
m
Swell
Dir
 
Speed
knots
Gust
knots
hPa Trend Height
m
Period
s
Dir
21/04:30pm 20.4 SW 10 13 1019.0 - 0.0 - - - - - - -
21/04:00pm 20.9 SW 9 16 1019.0 - 0.0 - - - - - - -
21/03:30pm 21.6 SSW 7 12 1018.9 - 0.0 - - - - - - -
21/03:00pm 21.6 WSW 11 14 1018.8 - 0.0 - - - - - - -
21/02:30pm 21.6 SSW 7 14 1018.8 - 0.0 - - - - - - -
21/02:00pm 21.5 WSW 9 13 1018.8 - 0.0 - - - - - - -
21/01:30pm 21.7 WSW 6 10 1018.8 - 0.0 - - - - - - -
21/01:00pm 21.3 SSE 5 8 1019.0 - 0.0 - - - - - - -
21/12:30pm 21.1 S 5 8 1019.3 - 0.0 - - - - - - -
21/12:00pm 20.3 S 5 8 1019.6 - 0.0 - - - - - - -
21/11:30am 19.7 SSE 5 7 1019.9 - 0.0 - - - - - - -
21/11:00am 19.1 S 5 8 1020.2 - 0.0 - - - - - - -
21/10:30am 18.6 SSE 6 9 1020.2 - 0.0 - - - - - - -
21/10:00am 18.0 SSE 6 9 1020.1 - 0.0 - - - - - - -
21/09:30am 16.9 SSE 5 7 1020.1 - 0.0 - - - - - - -
21/09:00am 16.2 ESE 4 7 1020.0 - 0.0 - - - - - - -
21/08:30am 14.9 ESE 5 7 1019.7 - 0.0 - - - - - - -
21/08:00am 13.6 ESE 3 5 1019.5 - 0.0 - - - - - - -
21/07:30am 12.8 ESE 4 5 1019.2 - 0.0 - - - - - - -
21/07:00am 12.6 SE 4 6 1018.8 - 0.0 - - - - - - -
21/06:30am 12.8 ESE 5 7 1018.6 - 0.0 - - - - - - -
21/06:00am 13.3 SE 5 6 1018.5 - 0.0 - - - - - - -
21/05:30am 13.5 SE 6 7 1018.5 - 0.0 - - - - - - -
21/05:00am 13.5 SSE 6 8 1018.1 - 0.0 - - - - - - -
21/04:30am 13.5 SE 5 6 1017.7 - 0.0 - - - - - - -
21/04:00am 14.8 SSE 5 7 1017.5 - 0.0 - - - - - - -
21/03:30am 15.1 S 6 8 1017.3 - 0.0 - - - - - - -
21/03:00am 15.6 SSE 4 6 1017.0 - 0.0 - - - - - - -
21/02:30am 15.8 SSE 6 8 1017.0 - 0.0 - - - - - - -
21/02:00am 16.1 S 5 8 1016.9 - 0.0 - - - - - - -
21/01:30am 16.3 S 7 10 1016.7 - 0.0 - - - - - - -
21/01:00am 16.4 S 7 11 1016.6 - 0.0 - - - - - - -
21/12:30am 16.5 S 7 9 1016.5 - 0.0 - - - - - - -
21/12:00am 16.4 S 6 9 1016.3 - 0.0 - - - - - - -
 
Date/Time
WST
Temp

°C
Wind Pressure Rain
since 9am
mm
Weather Cloud Vis
km
Sea
Height
m
Swell
Dir
 
Speed
knots
Gust
knots
hPa Trend Height
m
Period
s
Dir
20/11:30pm 16.7 SSE 6 10 1016.2 - 0.0 - - - - - - -
20/11:00pm 16.9 SSE 6 9 1016.1 - 0.0 - - - - - - -
20/10:30pm 17.2 S 9 12 1016.0 - 0.0 - - - - - - -
20/10:00pm 17.4 S 12 18 1016.0 - 0.0 - - - - - - -
20/09:30pm 17.7 S 11 17 1015.7 - 0.0 - - - - - - -
20/09:00pm 18.0 S 10 17 1015.3 - 0.0 - - - - - - -
20/08:30pm 18.4 S 10 15 1015.0 - 0.0 - - - - - - -
20/08:00pm 19.0 S 11 16 1014.7 - 0.0 - - - - - - -
20/07:30pm 19.4 S 9 13 1014.4 - 0.0 - - - - - - -
20/07:00pm 19.5 S 10 14 1014.2 - 0.0 - - - - - - -
20/06:30pm 19.7 S 11 18 1014.0 - 0.0 - - - - - - -
20/06:00pm 19.8 S 9 14 1013.8 - 0.0 - - - - - - -
20/05:30pm 20.0 S 9 16 1013.5 - 0.0 - - - - - - -
20/05:00pm 20.5 S 11 15 1013.3 - 0.0 - - - - - - -
20/04:30pm 20.5 SSW 8 15 1013.5 - 0.0 - - - - - - -
20/04:00pm 20.6 SSW 11 16 1013.2 - 0.0 - - - - - - -
20/03:30pm 21.0 SSW 11 17 1013.2 - 0.0 - - - - - - -
20/03:00pm 21.2 SSW 11 18 1012.8 - 0.0 - - - - - - -
20/02:30pm 21.1 SSW 11 15 1012.9 - 0.0 - - - - - - -
20/02:00pm 21.2 SSW 11 18 1012.7 - 0.0 - - - - - - -
20/01:30pm 21.6 S 8 12 1012.6 - 0.0 - - - - - - -
20/01:00pm 21.8 S 8 12 1013.1 - 0.0 - - - - - - -
20/12:30pm 22.6 WSW 6 10 1013.6 - 0.0 - - - - - - -
20/12:00pm 22.2 S 6 8 1013.9 - 0.0 - - - - - - -
20/11:30am 21.0 S 4 7 1014.4 - 0.0 - - - - - - -
20/11:00am 20.4 S 4 5 1014.8 - 0.0 - - - - - - -
20/10:30am 19.8 S 3 5 1015.1 - 0.0 - - - - - - -
20/10:00am 19.4 S 3 5 1015.3 - 0.0 - - - - - - -
20/09:30am 19.3 SE 3 5 1015.4 - 0.0 - - - - - - -
20/09:00am 17.8 SE 4 6 1015.3 - 0.0 - - - - - - -
20/08:30am 16.9 SE 4 7 1015.4 - 0.0 - - - - - - -
20/08:00am 15.8 SE 4 6 1015.4 - 0.0 - - - - - - -
20/07:30am 15.5 SSE 5 7 1015.1 - 0.0 - - - - - - -
20/07:00am 15.8 SSE 5 8 1015.0 - 0.0 - - - - - - -
20/06:30am 15.8 SSE 5 8 1014.9 - 0.0 - - - - - - -
20/06:00am 15.9 SSE 5 7 1014.9 - 0.0 - - - - - - -
20/05:30am 16.1 SSE 5 7 1014.9 - 0.0 - - - - - - -
20/05:00am 16.3 SSE 5 7 1014.9 - 0.0 - - - - - - -
20/04:30am 16.5 SSE 5 7 1014.6 - 0.0 - - - - - - -
20/04:00am 16.5 SSE 5 7 1014.7 - 0.0 - - - - - - -
20/03:30am 16.7 SSE 5 7 1014.7 - 0.0 - - - - - - -
20/03:00am 17.1 SSE 5 7 1014.4 - 0.0 - - - - - - -
20/02:30am 17.1 SE 5 7 1014.7 - 0.0 - - - - - - -
20/02:00am 17.2 SSE 6 9 1014.8 - 0.0 - - - - - - -
20/01:30am 17.3 SSE 5 7 1014.6 - 0.0 - - - - - - -
20/01:00am 17.6 SSE 8 11 1014.6 - 0.0 - - - - - - -
20/12:30am 17.8 SSE 7 10 1014.6 - 0.0 - - - - - - -
20/12:00am 17.9 SSE 9 13 1014.7 - 0.0 - - - - - - -
 
Date/Time
WST
Temp

°C
Wind Pressure Rain
since 9am
mm
Weather Cloud Vis
km
Sea
Height
m
Swell
Dir
 
Speed
knots
Gust
knots
hPa Trend Height
m
Period
s
Dir
19/11:30pm 18.2 S 9 14 1014.8 - 0.0 - - - - - - -
19/11:00pm 18.4 S 10 15 1015.0 - 0.0 - - - - - - -
19/10:30pm 18.7 S 9 15 1015.1 - 0.0 - - - - - - -
19/10:00pm 19.0 S 11 18 1015.0 - 0.0 - - - - - - -
19/09:30pm 19.3 S 9 13 1015.0 - 0.0 - - - - - - -
19/09:00pm 19.5 S 9 13 1015.2 - 0.0 - - - - - - -
19/08:30pm 20.0 S 9 16 1015.2 - 0.0 - - - - - - -
19/08:00pm 20.5 S 11 15 1015.1 - 0.0 - - - - - - -
19/07:30pm 20.6 S 9 15 1015.0 - 0.0 - - - - - - -
19/07:00pm 20.5 SSW 10 15 1014.8 - 0.0 - - - - - - -
19/06:30pm 20.6 SSW 10 14 1014.8 - 0.0 - - - - - - -
19/06:00pm 20.6 SSW 10 14 1014.6 - 0.0 - - - - - - -
19/05:30pm 21.0 SSW 9 15 1014.5 - 0.0 - - - - - - -
19/05:00pm 21.2 SSW 11 17 1014.4 - 0.0 - - - - - - -
19/04:30pm 21.8 SSW 13 20 1014.3 - 0.0 - - - - - - -
19/04:00pm 22.0 SSW 14 20 1014.3 - 0.0 - - - - - - -
19/03:30pm 22.2 SSW 13 20 1014.4 - 0.0 - - - - - - -
19/03:00pm 22.9 SSW 11 16 1014.5 - 0.0 - - - - - - -
19/02:30pm 22.9 SSW 11 16 1014.5 - 0.0 - - - - - - -
19/02:00pm 23.0 SSW 11 16 1014.7 - 0.0 - - - - - - -
19/01:30pm 23.4 SSW 8 12 1014.9 - 0.0 - - - - - - -
19/01:00pm 23.3 S 10 13 1015.3 - 0.0 - - - - - - -
19/12:30pm 22.6 S 9 13 1015.9 - 0.0 - - - - - - -
19/12:00pm 22.3 SSW 9 13 1016.5 - 0.0 - - - - - - -
19/11:30am 21.8 S 9 12 1017.0 - 0.0 - - - - - - -
19/11:00am 21.3 S 8 13 1017.4 - 0.0 - - - - - - -
19/10:30am 20.4 S 6 10 1017.9 - 0.0 - - - - - - -
19/10:00am 19.4 S 7 10 1018.1 - 0.0 - - - - - - -
19/09:30am 18.9 SSE 7 10 1018.5 - 0.0 - - - - - - -
19/09:00am 18.0 SSE 7 9 1018.5 - 0.0 - - - - - - -
19/08:30am 17.5 S 8 12 1018.6 - 0.0 - - - - - - -
19/08:00am 16.7 S 7 11 1018.6 - 0.0 - - - - - - -
19/07:30am 16.3 S 4 6 1018.4 - 0.0 - - - - - - -
19/07:00am 16.0 S 5 7 1018.0 - 0.0 - - - - - - -
19/06:30am 16.1 S 4 6 1018.0 - 0.0 - - - - - - -
19/06:00am 16.3 S 5 7 1018.1 - 0.0 - - - - - - -
19/05:30am 16.3 SSE 5 8 1017.9 - 0.0 - - - - - - -
19/05:00am 16.1 S 5 8 1018.1 - 0.0 - - - - - - -
19/04:30am 16.4 S 4 5 1018.1 - 0.0 - - - - - - -
19/04:00am 16.5 S 3 5 1018.1 - 0.0 - - - - - - -
19/03:30am 16.7 SSE 4 5 1018.0 - 0.0 - - - - - - -
19/03:00am 16.9 SSE 5 7 1017.9 - 0.0 - - - - - - -
19/02:30am 17.0 S 5 8 1018.0 - 0.0 - - - - - - -
19/02:00am 17.2 S 6 9 1018.0 - 0.0 - - - - - - -
19/01:30am 17.6 SSE 8 12 1018.0 - 0.0 - - - - - - -
19/01:00am 17.8 SSE 9 14 1017.9 - 0.0 - - - - - - -
19/12:30am 18.1 S 10 16 1017.9 - 0.0 - - - - - - -
19/12:00am 18.4 S 9 14 1018.2 - 0.0 - - - - - - -
 
Date/Time
WST
Temp

°C
Wind Pressure Rain
since 9am
mm
Weather Cloud Vis
km
Sea
Height
m
Swell
Dir
 
Speed
knots
Gust
knots
hPa Trend Height
m
Period
s
Dir
18/11:30pm 18.9 S 10 14 1018.4 - 0.0 - - - - - - -
18/11:00pm 19.3 S 11 15 1018.8 - 0.0 - - - - - - -
18/10:30pm 19.6 S 10 14 1019.1 - 0.0 - - - - - - -
18/10:00pm 19.9 S 9 14 1019.3 - 0.0 - - - - - - -
18/09:30pm 20.1 S 8 10 1019.3 - 0.0 - - - - - - -
18/09:00pm 20.3 S 6 9 1019.2 - 0.0 - - - - - - -
18/08:30pm 20.5 S 6 9 1019.2 - 0.0 - - - - - - -
18/08:00pm 20.4 S 6 9 1019.2 - 0.0 - - - - - - -
18/07:30pm 20.6 S 6 10 1019.1 - 0.0 - - - - - - -
18/07:00pm 20.8 S 7 9 1018.9 - 0.0 - - - - - - -
18/06:30pm 21.0 S 7 11 1018.6 - 0.0 - - - - - - -
18/06:00pm 21.3 S 8 12 1018.5 - 0.0 - - - - - - -
18/05:30pm 21.6 S 8 11 1018.4 - 0.0 - - - - - - -
18/05:00pm 22.2 SSW 8 12 1018.2 - 0.0 - - - - - - -

Other Formats:

Comma delimited format used in spreadsheet applications
http://www.bom.gov.au/fwo/IDW60701/IDW60701.94605.axf

JavaScript Object Notation format (JSON) in row-major order
http://www.bom.gov.au/fwo/IDW60701/IDW60701.94605.json